Pagrindinis puslapis
METAR-TAF:

METAR-TAF

Oro uostai :

Sautamptonas, Anglija

platuma: 50-54N, ilguma: 001-24W, Aukštis: 9 m

Dabartinis oras

Ataskaita buvo paskelbta 14 minutes, ne 14:20 UTC
Vėjas 9 kt iš Pietvakarių, svyruoja nuo Pietų ir Vakarų/Pietvakarių
Temperatūra 10°C
Drėgmė 87%
Slėgis 1020 hPa
Matomumas: 9000 m
Mažai debesys ne aukštis 800 ft
Išsisklaidę debesys ne aukštis 1700 ft
lietus, dulksna

METAR: EGHI 191420Z 22009KT 190V250 9000 -SHRADZ FEW008 SCT017 10/08 Q1020

Laikas: 14:34 (14:34 UTC)

Prognozė

Ataskaita buvo paskelbta 31 minutes, ne 14:03 UTC
Prognozė galioja nuo 19 metu 15 UTC su 19 metu 24 UTC
Vėjas 10 kt iš Pietvakarių
Matomumas 10 km arba daugiau
Su prošvaistėmis ne aukštis 2000 ft
Laikinai
nuo 19 metu 15 UTC su 19 metu 21 UTC
Vėjas 16 kt iš Vakarų/Pietvakarių su gūsio iki 28 kt
Tikimybė 30% :
Laikinai
nuo 19 metu 15 UTC su 19 metu 24 UTC
Matomumas: 5000 m
Su prošvaistėmis ne aukštis 800 ft
lietus, dulksna

TAF: EGHI 191403Z 1915/1924 22010KT 9999 BKN020 TEMPO 1915/1921 24016G28KT PROB30 TEMPO 1915/1924 5000 -RADZ BKN008

Orai ataskaitas ir orų prognozės (METAR, TAF).

turimą stotys yra geltonos ir raudonos taškus žemėlapyje.

Perkelti pele per norėdami pamatyti stoties vardą.

Tada spustelėkite, norėdami matyti oro stebėjimo ir prognozės.

Norėdami pakeisti žemėlapį: spustelėkite ant žalios mygtukų su juodo kryžiaus žemyn,; žalią mygtuką su brūkšneliu, jei norite nutolinti; arba žalių rodyklių gretimoms žemėlapius.


METAR-TAF: